sensor_id;sensor_type;location;lat;lon;timestamp;P1;durP1;ratioP1;P2;durP2;ratioP2
62915;SDS011;49010;51.230;-2.306;2023-02-12T00:01:08;10.93;;;7.50;;
62915;SDS011;49010;51.230;-2.306;2023-02-12T00:04:52;11.75;;;7.30;;
62915;SDS011;49010;51.230;-2.306;2023-02-12T00:08:34;11.15;;;7.35;;
62915;SDS011;49010;51.230;-2.306;2023-02-12T00:12:16;11.95;;;7.53;;
62915;SDS011;49010;51.230;-2.306;2023-02-12T00:15:58;15.93;;;8.35;;
62915;SDS011;49010;51.230;-2.306;2023-02-12T00:19:39;9.98;;;7.22;;
62915;SDS011;49010;51.230;-2.306;2023-02-12T00:23:21;13.25;;;8.00;;
62915;SDS011;49010;51.230;-2.306;2023-02-12T00:27:03;11.02;;;7.55;;
62915;SDS011;49010;51.230;-2.306;2023-02-12T00:30:45;12.45;;;8.57;;
62915;SDS011;49010;51.230;-2.306;2023-02-12T00:34:27;13.65;;;9.50;;
62915;SDS011;49010;51.230;-2.306;2023-02-12T00:38:09;12.07;;;7.90;;
62915;SDS011;49010;51.230;-2.306;2023-02-12T00:41:50;11.40;;;7.45;;
62915;SDS011;49010;51.230;-2.306;2023-02-12T00:45:32;11.52;;;7.50;;
62915;SDS011;49010;51.230;-2.306;2023-02-12T00:49:14;12.07;;;6.90;;
62915;SDS011;49010;51.230;-2.306;2023-02-12T00:52:56;10.00;;;7.50;;
62915;SDS011;49010;51.230;-2.306;2023-02-12T00:56:38;13.05;;;8.63;;
62915;SDS011;49010;51.230;-2.306;2023-02-12T01:00:20;13.32;;;7.63;;
62915;SDS011;49010;51.230;-2.306;2023-02-12T01:04:02;11.30;;;7.57;;
62915;SDS011;49010;51.230;-2.306;2023-02-12T01:07:48;13.32;;;7.07;;
62915;SDS011;49010;51.230;-2.306;2023-02-12T01:11:30;15.20;;;7.38;;
62915;SDS011;49010;51.230;-2.306;2023-02-12T01:15:12;15.43;;;8.02;;
62915;SDS011;49010;51.230;-2.306;2023-02-12T01:18:55;13.55;;;8.35;;
62915;SDS011;49010;51.230;-2.306;2023-02-12T01:22:37;16.60;;;7.82;;
62915;SDS011;49010;51.230;-2.306;2023-02-12T01:26:19;12.77;;;7.47;;
62915;SDS011;49010;51.230;-2.306;2023-02-12T01:30:02;14.02;;;8.35;;
62915;SDS011;49010;51.230;-2.306;2023-02-12T01:33:46;11.82;;;7.40;;
62915;SDS011;49010;51.230;-2.306;2023-02-12T01:37:29;12.07;;;7.32;;
62915;SDS011;49010;51.230;-2.306;2023-02-12T01:41:14;14.13;;;8.23;;
62915;SDS011;49010;51.230;-2.306;2023-02-12T01:52:37;17.98;;;9.30;;
62915;SDS011;49010;51.230;-2.306;2023-02-12T01:56:21;18.42;;;10.63;;
62915;SDS011;49010;51.230;-2.306;2023-02-12T02:00:07;14.65;;;9.43;;
62915;SDS011;49010;51.230;-2.306;2023-02-12T02:03:53;16.50;;;9.57;;
62915;SDS011;49010;51.230;-2.306;2023-02-12T02:07:40;18.27;;;10.43;;
62915;SDS011;49010;51.230;-2.306;2023-02-12T02:11:24;18.52;;;10.75;;
62915;SDS011;49010;51.230;-2.306;2023-02-12T02:15:25;15.68;;;10.55;;
62915;SDS011;49010;51.230;-2.306;2023-02-12T02:27:19;20.00;;;12.50;;
62915;SDS011;49010;51.230;-2.306;2023-02-12T02:35:11;18.27;;;11.50;;
62915;SDS011;49010;51.230;-2.306;2023-02-12T02:39:08;15.57;;;11.45;;
62915;SDS011;49010;51.230;-2.306;2023-02-12T02:42:57;22.20;;;13.95;;
62915;SDS011;49010;51.230;-2.306;2023-02-12T02:46:46;18.80;;;12.80;;
62915;SDS011;49010;51.230;-2.306;2023-02-12T02:50:31;17.67;;;10.05;;
62915;SDS011;49010;51.230;-2.306;2023-02-12T02:54:20;15.07;;;10.38;;
62915;SDS011;49010;51.230;-2.306;2023-02-12T03:02:08;20.27;;;11.85;;
62915;SDS011;49010;51.230;-2.306;2023-02-12T03:06:00;25.83;;;13.68;;
62915;SDS011;49010;51.230;-2.306;2023-02-12T03:09:47;20.02;;;12.82;;
62915;SDS011;49010;51.230;-2.306;2023-02-12T03:17:21;16.27;;;10.43;;
62915;SDS011;49010;51.230;-2.306;2023-02-12T03:21:12;15.57;;;9.95;;
62915;SDS011;49010;51.230;-2.306;2023-02-12T03:28:55;18.30;;;10.88;;
62915;SDS011;49010;51.230;-2.306;2023-02-12T03:40:50;15.52;;;10.73;;
62915;SDS011;49010;51.230;-2.306;2023-02-12T03:48:27;16.00;;;10.23;;
62915;SDS011;49010;51.230;-2.306;2023-02-12T03:52:25;17.30;;;10.55;;
62915;SDS011;49010;51.230;-2.306;2023-02-12T03:56:11;18.45;;;11.77;;
62915;SDS011;49010;51.230;-2.306;2023-02-12T03:59:58;16.95;;;11.00;;
62915;SDS011;49010;51.230;-2.306;2023-02-12T04:03:46;21.20;;;12.40;;
62915;SDS011;49010;51.230;-2.306;2023-02-12T04:07:28;19.42;;;11.63;;
62915;SDS011;49010;51.230;-2.306;2023-02-12T04:19:15;21.88;;;12.38;;
62915;SDS011;49010;51.230;-2.306;2023-02-12T04:31:03;20.30;;;11.52;;
62915;SDS011;49010;51.230;-2.306;2023-02-12T04:38:44;16.13;;;10.52;;
62915;SDS011;49010;51.230;-2.306;2023-02-12T04:42:39;18.95;;;10.80;;
62915;SDS011;49010;51.230;-2.306;2023-02-12T04:46:25;18.83;;;11.55;;
62915;SDS011;49010;51.230;-2.306;2023-02-12T04:50:07;19.90;;;10.18;;
62915;SDS011;49010;51.230;-2.306;2023-02-12T04:53:49;20.75;;;12.23;;
62915;SDS011;49010;51.230;-2.306;2023-02-12T04:57:31;21.10;;;12.38;;
62915;SDS011;49010;51.230;-2.306;2023-02-12T05:01:13;21.38;;;11.95;;
62915;SDS011;49010;51.230;-2.306;2023-02-12T05:04:55;23.30;;;13.38;;
62915;SDS011;49010;51.230;-2.306;2023-02-12T05:08:37;19.42;;;11.95;;
62915;SDS011;49010;51.230;-2.306;2023-02-12T05:12:18;20.20;;;12.23;;
62915;SDS011;49010;51.230;-2.306;2023-02-12T05:16:04;17.50;;;10.95;;
62915;SDS011;49010;51.230;-2.306;2023-02-12T05:19:47;22.48;;;12.00;;
62915;SDS011;49010;51.230;-2.306;2023-02-12T05:23:30;21.73;;;12.75;;
62915;SDS011;49010;51.230;-2.306;2023-02-12T05:27:14;19.75;;;13.00;;
62915;SDS011;49010;51.230;-2.306;2023-02-12T05:30:59;20.92;;;12.80;;
62915;SDS011;49010;51.230;-2.306;2023-02-12T05:34:42;18.88;;;10.82;;
62915;SDS011;49010;51.230;-2.306;2023-02-12T05:38:24;15.15;;;9.75;;
62915;SDS011;49010;51.230;-2.306;2023-02-12T05:42:06;17.83;;;11.32;;
62915;SDS011;49010;51.230;-2.306;2023-02-12T05:45:48;19.15;;;11.23;;
62915;SDS011;49010;51.230;-2.306;2023-02-12T05:49:30;17.38;;;9.95;;
62915;SDS011;49010;51.230;-2.306;2023-02-12T05:53:11;19.83;;;11.55;;
62915;SDS011;49010;51.230;-2.306;2023-02-12T05:56:53;19.23;;;11.50;;
62915;SDS011;49010;51.230;-2.306;2023-02-12T06:00:35;21.23;;;13.55;;
62915;SDS011;49010;51.230;-2.306;2023-02-12T06:04:18;17.77;;;9.93;;
62915;SDS011;49010;51.230;-2.306;2023-02-12T06:08:04;22.90;;;11.93;;
62915;SDS011;49010;51.230;-2.306;2023-02-12T06:11:45;19.98;;;13.02;;
62915;SDS011;49010;51.230;-2.306;2023-02-12T06:15:27;20.27;;;12.02;;
62915;SDS011;49010;51.230;-2.306;2023-02-12T06:19:09;18.95;;;12.25;;
62915;SDS011;49010;51.230;-2.306;2023-02-12T06:22:51;21.25;;;12.75;;
62915;SDS011;49010;51.230;-2.306;2023-02-12T06:26:33;20.60;;;12.85;;
62915;SDS011;49010;51.230;-2.306;2023-02-12T06:30:14;25.08;;;13.43;;
62915;SDS011;49010;51.230;-2.306;2023-02-12T06:33:57;22.58;;;13.50;;
62915;SDS011;49010;51.230;-2.306;2023-02-12T06:37:42;26.00;;;14.20;;
62915;SDS011;49010;51.230;-2.306;2023-02-12T06:41:24;23.10;;;14.25;;
62915;SDS011;49010;51.230;-2.306;2023-02-12T06:45:05;19.85;;;12.65;;
62915;SDS011;49010;51.230;-2.306;2023-02-12T06:48:48;20.20;;;13.05;;
62915;SDS011;49010;51.230;-2.306;2023-02-12T06:52:33;20.05;;;12.18;;
62915;SDS011;49010;51.230;-2.306;2023-02-12T06:56:15;21.95;;;12.82;;
62915;SDS011;49010;51.230;-2.306;2023-02-12T06:59:58;24.83;;;13.50;;
62915;SDS011;49010;51.230;-2.306;2023-02-12T07:03:40;26.02;;;13.50;;
62915;SDS011;49010;51.230;-2.306;2023-02-12T07:07:22;19.20;;;12.50;;
62915;SDS011;49010;51.230;-2.306;2023-02-12T07:11:04;22.02;;;13.50;;
62915;SDS011;49010;51.230;-2.306;2023-02-12T07:14:46;20.38;;;12.60;;
62915;SDS011;49010;51.230;-2.306;2023-02-12T07:18:28;20.55;;;12.40;;
62915;SDS011;49010;51.230;-2.306;2023-02-12T07:22:10;20.17;;;12.73;;
62915;SDS011;49010;51.230;-2.306;2023-02-12T07:25:58;31.48;;;13.02;;
62915;SDS011;49010;51.230;-2.306;2023-02-12T07:29:42;18.30;;;12.35;;
62915;SDS011;49010;51.230;-2.306;2023-02-12T07:33:24;21.70;;;13.23;;
62915;SDS011;49010;51.230;-2.306;2023-02-12T07:37:06;22.50;;;12.57;;
62915;SDS011;49010;51.230;-2.306;2023-02-12T07:40:48;19.52;;;13.00;;
62915;SDS011;49010;51.230;-2.306;2023-02-12T07:44:29;18.60;;;12.40;;
62915;SDS011;49010;51.230;-2.306;2023-02-12T07:48:12;18.35;;;11.35;;
62915;SDS011;49010;51.230;-2.306;2023-02-12T07:51:54;18.45;;;12.05;;
62915;SDS011;49010;51.230;-2.306;2023-02-12T07:55:36;23.02;;;13.10;;
62915;SDS011;49010;51.230;-2.306;2023-02-12T07:59:18;21.10;;;12.52;;
62915;SDS011;49010;51.230;-2.306;2023-02-12T08:03:01;17.65;;;11.93;;
62915;SDS011;49010;51.230;-2.306;2023-02-12T08:06:44;20.17;;;11.98;;
62915;SDS011;49010;51.230;-2.306;2023-02-12T08:10:27;19.45;;;11.73;;
62915;SDS011;49010;51.230;-2.306;2023-02-12T08:14:14;17.95;;;11.65;;
62915;SDS011;49010;51.230;-2.306;2023-02-12T08:17:58;18.52;;;10.18;;
62915;SDS011;49010;51.230;-2.306;2023-02-12T08:21:41;18.17;;;10.02;;
62915;SDS011;49010;51.230;-2.306;2023-02-12T08:25:23;15.90;;;10.23;;
62915;SDS011;49010;51.230;-2.306;2023-02-12T08:29:06;15.68;;;9.77;;
62915;SDS011;49010;51.230;-2.306;2023-02-12T08:32:53;24.60;;;13.00;;
62915;SDS011;49010;51.230;-2.306;2023-02-12T08:36:36;17.38;;;11.10;;
62915;SDS011;49010;51.230;-2.306;2023-02-12T08:40:19;15.60;;;9.02;;
62915;SDS011;49010;51.230;-2.306;2023-02-12T08:44:02;15.52;;;10.15;;
62915;SDS011;49010;51.230;-2.306;2023-02-12T08:47:46;15.05;;;9.25;;
62915;SDS011;49010;51.230;-2.306;2023-02-12T08:51:29;13.38;;;8.85;;
62915;SDS011;49010;51.230;-2.306;2023-02-12T08:55:18;15.52;;;9.10;;
62915;SDS011;49010;51.230;-2.306;2023-02-12T08:59:00;12.68;;;8.60;;
62915;SDS011;49010;51.230;-2.306;2023-02-12T09:02:46;15.93;;;9.10;;
62915;SDS011;49010;51.230;-2.306;2023-02-12T09:06:30;14.38;;;8.52;;
62915;SDS011;49010;51.230;-2.306;2023-02-12T09:10:13;11.27;;;7.80;;
62915;SDS011;49010;51.230;-2.306;2023-02-12T09:13:59;10.77;;;7.82;;
62915;SDS011;49010;51.230;-2.306;2023-02-12T09:21:26;12.45;;;7.45;;
62915;SDS011;49010;51.230;-2.306;2023-02-12T09:25:08;11.68;;;7.18;;
62915;SDS011;49010;51.230;-2.306;2023-02-12T09:28:50;11.63;;;8.18;;
62915;SDS011;49010;51.230;-2.306;2023-02-12T09:32:32;12.73;;;8.40;;
62915;SDS011;49010;51.230;-2.306;2023-02-12T09:36:14;12.73;;;8.95;;
62915;SDS011;49010;51.230;-2.306;2023-02-12T09:39:57;13.10;;;7.35;;
62915;SDS011;49010;51.230;-2.306;2023-02-12T09:44:03;12.55;;;8.52;;
62915;SDS011;49010;51.230;-2.306;2023-02-12T09:51:44;12.27;;;9.57;;
62915;SDS011;49010;51.230;-2.306;2023-02-12T09:55:32;12.65;;;8.73;;
62915;SDS011;49010;51.230;-2.306;2023-02-12T10:03:17;11.43;;;8.52;;
62915;SDS011;49010;51.230;-2.306;2023-02-12T10:27:37;13.43;;;8.50;;
62915;SDS011;49010;51.230;-2.306;2023-02-12T10:35:44;9.70;;;7.15;;
62915;SDS011;49010;51.230;-2.306;2023-02-12T10:39:33;11.65;;;7.68;;
62915;SDS011;49010;51.230;-2.306;2023-02-12T10:43:17;11.07;;;7.45;;
62915;SDS011;49010;51.230;-2.306;2023-02-12T10:46:59;10.52;;;7.65;;
62915;SDS011;49010;51.230;-2.306;2023-02-12T10:58:30;9.95;;;7.05;;
62915;SDS011;49010;51.230;-2.306;2023-02-12T11:02:20;11.40;;;7.30;;
62915;SDS011;49010;51.230;-2.306;2023-02-12T11:06:11;9.95;;;6.53;;
62915;SDS011;49010;51.230;-2.306;2023-02-12T11:09:55;11.45;;;7.05;;
62915;SDS011;49010;51.230;-2.306;2023-02-12T11:13:43;12.23;;;6.82;;
62915;SDS011;49010;51.230;-2.306;2023-02-12T11:17:38;13.18;;;7.43;;
62915;SDS011;49010;51.230;-2.306;2023-02-12T11:21:22;11.13;;;7.55;;
62915;SDS011;49010;51.230;-2.306;2023-02-12T11:25:07;11.68;;;7.20;;
62915;SDS011;49010;51.230;-2.306;2023-02-12T11:32:38;11.75;;;7.88;;
62915;SDS011;49010;51.230;-2.306;2023-02-12T11:36:24;11.18;;;7.43;;
62915;SDS011;49010;51.230;-2.306;2023-02-12T11:40:26;12.88;;;7.25;;
62915;SDS011;49010;51.230;-2.306;2023-02-12T11:48:16;11.30;;;7.78;;
62915;SDS011;49010;51.230;-2.306;2023-02-12T11:52:02;11.32;;;8.85;;
62915;SDS011;49010;51.230;-2.306;2023-02-12T11:55:52;11.05;;;7.47;;
62915;SDS011;49010;51.230;-2.306;2023-02-12T11:59:45;12.05;;;9.00;;
62915;SDS011;49010;51.230;-2.306;2023-02-12T12:07:34;12.50;;;9.27;;
62915;SDS011;49010;51.230;-2.306;2023-02-12T12:11:20;14.15;;;9.05;;
62915;SDS011;49010;51.230;-2.306;2023-02-12T12:19:27;12.35;;;8.63;;
62915;SDS011;49010;51.230;-2.306;2023-02-12T12:23:39;12.25;;;9.63;;
62915;SDS011;49010;51.230;-2.306;2023-02-12T12:27:59;16.13;;;9.82;;
62915;SDS011;49010;51.230;-2.306;2023-02-12T12:31:51;14.77;;;9.45;;
62915;SDS011;49010;51.230;-2.306;2023-02-12T12:36:25;13.23;;;9.35;;
62915;SDS011;49010;51.230;-2.306;2023-02-12T12:40:15;12.93;;;9.23;;
62915;SDS011;49010;51.230;-2.306;2023-02-12T12:44:41;14.60;;;9.60;;
62915;SDS011;49010;51.230;-2.306;2023-02-12T12:57:09;8.43;;;6.15;;
62915;SDS011;49010;51.230;-2.306;2023-02-12T13:12:27;11.25;;;7.40;;
62915;SDS011;49010;51.230;-2.306;2023-02-12T13:16:23;11.75;;;8.48;;
62915;SDS011;49010;51.230;-2.306;2023-02-12T13:28:12;11.63;;;8.35;;
62915;SDS011;49010;51.230;-2.306;2023-02-12T13:32:12;13.52;;;8.38;;
62915;SDS011;49010;51.230;-2.306;2023-02-12T13:36:03;12.15;;;8.70;;
62915;SDS011;49010;51.230;-2.306;2023-02-12T13:39:47;16.05;;;8.25;;
62915;SDS011;49010;51.230;-2.306;2023-02-12T13:47:39;8.50;;;5.68;;
62915;SDS011;49010;51.230;-2.306;2023-02-12T13:51:41;9.60;;;6.90;;
62915;SDS011;49010;51.230;-2.306;2023-02-12T13:55:34;13.10;;;8.13;;
62915;SDS011;49010;51.230;-2.306;2023-02-12T14:03:15;10.40;;;6.68;;
62915;SDS011;49010;51.230;-2.306;2023-02-12T14:07:07;12.02;;;7.28;;
62915;SDS011;49010;51.230;-2.306;2023-02-12T14:11:09;13.65;;;7.13;;
62915;SDS011;49010;51.230;-2.306;2023-02-12T14:18:37;9.48;;;7.30;;
62915;SDS011;49010;51.230;-2.306;2023-02-12T14:23:19;11.68;;;7.45;;
62915;SDS011;49010;51.230;-2.306;2023-02-12T14:26:24;12.13;;;7.93;;
62915;SDS011;49010;51.230;-2.306;2023-02-12T14:33:51;11.35;;;7.47;;
62915;SDS011;49010;51.230;-2.306;2023-02-12T14:37:46;10.95;;;7.93;;
62915;SDS011;49010;51.230;-2.306;2023-02-12T14:41:29;12.50;;;7.70;;
62915;SDS011;49010;51.230;-2.306;2023-02-12T14:45:30;11.48;;;7.95;;
62915;SDS011;49010;51.230;-2.306;2023-02-12T14:49:26;13.50;;;8.55;;
62915;SDS011;49010;51.230;-2.306;2023-02-12T14:53:26;13.15;;;8.82;;
62915;SDS011;49010;51.230;-2.306;2023-02-12T14:57:22;11.73;;;8.50;;
62915;SDS011;49010;51.230;-2.306;2023-02-12T15:01:04;11.70;;;8.68;;
62915;SDS011;49010;51.230;-2.306;2023-02-12T15:04:47;12.77;;;9.10;;
62915;SDS011;49010;51.230;-2.306;2023-02-12T15:12:18;15.18;;;10.25;;
62915;SDS011;49010;51.230;-2.306;2023-02-12T15:23:43;9.82;;;6.60;;
62915;SDS011;49010;51.230;-2.306;2023-02-12T15:27:25;6.28;;;5.03;;
62915;SDS011;49010;51.230;-2.306;2023-02-12T15:31:07;6.38;;;5.43;;
62915;SDS011;49010;51.230;-2.306;2023-02-12T15:34:51;6.28;;;5.68;;
62915;SDS011;49010;51.230;-2.306;2023-02-12T15:38:36;7.25;;;5.00;;
62915;SDS011;49010;51.230;-2.306;2023-02-12T15:46:15;6.70;;;5.43;;
62915;SDS011;49010;51.230;-2.306;2023-02-12T15:49:58;7.72;;;5.43;;
62915;SDS011;49010;51.230;-2.306;2023-02-12T15:53:40;4.93;;;3.70;;
62915;SDS011;49010;51.230;-2.306;2023-02-12T15:57:23;5.78;;;3.65;;
62915;SDS011;49010;51.230;-2.306;2023-02-12T16:01:05;4.13;;;2.20;;
62915;SDS011;49010;51.230;-2.306;2023-02-12T16:04:47;4.10;;;1.83;;
62915;SDS011;49010;51.230;-2.306;2023-02-12T16:08:30;6.32;;;3.13;;
62915;SDS011;49010;51.230;-2.306;2023-02-12T16:12:14;6.13;;;3.22;;
62915;SDS011;49010;51.230;-2.306;2023-02-12T16:23:55;4.75;;;2.65;;
62915;SDS011;49010;51.230;-2.306;2023-02-12T16:27:38;5.40;;;3.17;;
62915;SDS011;49010;51.230;-2.306;2023-02-12T16:31:21;4.57;;;2.70;;
62915;SDS011;49010;51.230;-2.306;2023-02-12T16:35:21;5.85;;;3.65;;
62915;SDS011;49010;51.230;-2.306;2023-02-12T16:39:05;4.85;;;4.22;;
62915;SDS011;49010;51.230;-2.306;2023-02-12T16:46:31;6.55;;;5.05;;
62915;SDS011;49010;51.230;-2.306;2023-02-12T16:50:34;7.05;;;5.47;;
62915;SDS011;49010;51.230;-2.306;2023-02-12T16:54:32;8.95;;;5.72;;
62915;SDS011;49010;51.230;-2.306;2023-02-12T16:58:15;7.40;;;5.63;;
62915;SDS011;49010;51.230;-2.306;2023-02-12T17:05:44;6.47;;;4.75;;
62915;SDS011;49010;51.230;-2.306;2023-02-12T17:09:26;7.78;;;5.15;;
62915;SDS011;49010;51.230;-2.306;2023-02-12T17:13:10;6.90;;;4.35;;
62915;SDS011;49010;51.230;-2.306;2023-02-12T17:16:52;7.00;;;4.45;;
62915;SDS011;49010;51.230;-2.306;2023-02-12T17:20:34;6.03;;;3.95;;
62915;SDS011;49010;51.230;-2.306;2023-02-12T17:24:27;5.45;;;3.70;;
62915;SDS011;49010;51.230;-2.306;2023-02-12T17:28:10;6.15;;;3.75;;
62915;SDS011;49010;51.230;-2.306;2023-02-12T17:31:52;6.32;;;4.70;;
62915;SDS011;49010;51.230;-2.306;2023-02-12T17:35:37;8.25;;;5.20;;
62915;SDS011;49010;51.230;-2.306;2023-02-12T17:39:19;8.68;;;5.70;;
62915;SDS011;49010;51.230;-2.306;2023-02-12T17:43:02;8.52;;;5.97;;
62915;SDS011;49010;51.230;-2.306;2023-02-12T17:46:44;7.97;;;6.47;;
62915;SDS011;49010;51.230;-2.306;2023-02-12T17:50:26;7.53;;;5.88;;
62915;SDS011;49010;51.230;-2.306;2023-02-12T17:54:08;7.65;;;5.43;;
62915;SDS011;49010;51.230;-2.306;2023-02-12T17:57:51;8.05;;;5.60;;
62915;SDS011;49010;51.230;-2.306;2023-02-12T18:01:34;7.95;;;5.50;;
62915;SDS011;49010;51.230;-2.306;2023-02-12T18:05:16;9.43;;;5.68;;
62915;SDS011;49010;51.230;-2.306;2023-02-12T18:08:58;6.93;;;5.20;;
62915;SDS011;49010;51.230;-2.306;2023-02-12T18:12:42;10.38;;;5.88;;
62915;SDS011;49010;51.230;-2.306;2023-02-12T18:16:24;11.52;;;6.45;;
62915;SDS011;49010;51.230;-2.306;2023-02-12T18:20:09;11.23;;;6.57;;
62915;SDS011;49010;51.230;-2.306;2023-02-12T18:23:52;10.68;;;6.65;;
62915;SDS011;49010;51.230;-2.306;2023-02-12T18:27:34;10.50;;;7.22;;
62915;SDS011;49010;51.230;-2.306;2023-02-12T18:31:17;14.15;;;8.30;;
62915;SDS011;49010;51.230;-2.306;2023-02-12T18:35:00;12.25;;;7.97;;
62915;SDS011;49010;51.230;-2.306;2023-02-12T18:38:42;11.95;;;8.48;;
62915;SDS011;49010;51.230;-2.306;2023-02-12T18:42:26;14.10;;;10.07;;
62915;SDS011;49010;51.230;-2.306;2023-02-12T18:46:23;11.98;;;9.18;;
62915;SDS011;49010;51.230;-2.306;2023-02-12T18:50:06;13.10;;;9.45;;
62915;SDS011;49010;51.230;-2.306;2023-02-12T18:53:53;11.23;;;8.52;;
62915;SDS011;49010;51.230;-2.306;2023-02-12T18:57:36;16.25;;;9.85;;
62915;SDS011;49010;51.230;-2.306;2023-02-12T19:01:18;17.08;;;10.63;;
62915;SDS011;49010;51.230;-2.306;2023-02-12T19:05:00;12.13;;;9.15;;
62915;SDS011;49010;51.230;-2.306;2023-02-12T19:08:42;13.43;;;8.85;;
62915;SDS011;49010;51.230;-2.306;2023-02-12T19:12:24;15.27;;;10.40;;
62915;SDS011;49010;51.230;-2.306;2023-02-12T19:16:07;18.40;;;10.45;;
62915;SDS011;49010;51.230;-2.306;2023-02-12T19:19:51;17.05;;;10.43;;
62915;SDS011;49010;51.230;-2.306;2023-02-12T19:23:33;15.95;;;10.07;;
62915;SDS011;49010;51.230;-2.306;2023-02-12T19:27:14;16.48;;;10.73;;
62915;SDS011;49010;51.230;-2.306;2023-02-12T19:30:58;14.77;;;10.30;;
62915;SDS011;49010;51.230;-2.306;2023-02-12T19:34:48;17.33;;;9.90;;
62915;SDS011;49010;51.230;-2.306;2023-02-12T19:38:30;16.50;;;10.50;;
62915;SDS011;49010;51.230;-2.306;2023-02-12T19:42:12;17.20;;;10.85;;
62915;SDS011;49010;51.230;-2.306;2023-02-12T19:49:45;13.93;;;9.30;;
62915;SDS011;49010;51.230;-2.306;2023-02-12T19:53:27;14.45;;;9.18;;
62915;SDS011;49010;51.230;-2.306;2023-02-12T19:57:09;14.75;;;9.52;;
62915;SDS011;49010;51.230;-2.306;2023-02-12T20:00:53;16.00;;;10.98;;
62915;SDS011;49010;51.230;-2.306;2023-02-12T20:04:36;12.65;;;8.93;;
62915;SDS011;49010;51.230;-2.306;2023-02-12T20:08:18;14.00;;;8.68;;
62915;SDS011;49010;51.230;-2.306;2023-02-12T20:12:00;13.80;;;8.35;;
62915;SDS011;49010;51.230;-2.306;2023-02-12T20:15:43;13.73;;;8.60;;
62915;SDS011;49010;51.230;-2.306;2023-02-12T20:19:26;16.55;;;8.90;;
62915;SDS011;49010;51.230;-2.306;2023-02-12T20:23:10;14.80;;;9.63;;
62915;SDS011;49010;51.230;-2.306;2023-02-12T20:26:52;19.65;;;9.90;;
62915;SDS011;49010;51.230;-2.306;2023-02-12T20:30:37;13.90;;;9.02;;
62915;SDS011;49010;51.230;-2.306;2023-02-12T20:34:20;12.70;;;8.30;;
62915;SDS011;49010;51.230;-2.306;2023-02-12T20:38:03;15.02;;;10.05;;
62915;SDS011;49010;51.230;-2.306;2023-02-12T20:41:45;12.48;;;8.20;;
62915;SDS011;49010;51.230;-2.306;2023-02-12T20:45:27;15.32;;;9.23;;
62915;SDS011;49010;51.230;-2.306;2023-02-12T20:49:11;11.88;;;7.93;;
62915;SDS011;49010;51.230;-2.306;2023-02-12T20:52:54;14.60;;;8.02;;
62915;SDS011;49010;51.230;-2.306;2023-02-12T20:56:36;11.80;;;7.18;;
62915;SDS011;49010;51.230;-2.306;2023-02-12T21:00:19;13.30;;;7.57;;
62915;SDS011;49010;51.230;-2.306;2023-02-12T21:04:02;15.55;;;8.93;;
62915;SDS011;49010;51.230;-2.306;2023-02-12T21:07:46;13.90;;;8.63;;
62915;SDS011;49010;51.230;-2.306;2023-02-12T21:11:29;15.30;;;9.20;;
62915;SDS011;49010;51.230;-2.306;2023-02-12T21:15:11;15.93;;;9.88;;
62915;SDS011;49010;51.230;-2.306;2023-02-12T21:18:53;13.93;;;8.90;;
62915;SDS011;49010;51.230;-2.306;2023-02-12T21:22:35;12.38;;;8.45;;
62915;SDS011;49010;51.230;-2.306;2023-02-12T21:26:17;17.13;;;8.77;;
62915;SDS011;49010;51.230;-2.306;2023-02-12T21:30:02;13.27;;;8.40;;
62915;SDS011;49010;51.230;-2.306;2023-02-12T21:33:45;11.20;;;8.23;;
62915;SDS011;49010;51.230;-2.306;2023-02-12T21:37:28;14.85;;;8.88;;
62915;SDS011;49010;51.230;-2.306;2023-02-12T21:41:17;12.23;;;7.32;;
62915;SDS011;49010;51.230;-2.306;2023-02-12T21:45:00;14.63;;;8.80;;
62915;SDS011;49010;51.230;-2.306;2023-02-12T21:48:42;13.73;;;8.55;;
62915;SDS011;49010;51.230;-2.306;2023-02-12T21:52:25;14.40;;;8.35;;
62915;SDS011;49010;51.230;-2.306;2023-02-12T21:56:07;13.68;;;7.78;;
62915;SDS011;49010;51.230;-2.306;2023-02-12T21:59:49;14.07;;;8.77;;
62915;SDS011;49010;51.230;-2.306;2023-02-12T22:03:31;15.60;;;9.38;;
62915;SDS011;49010;51.230;-2.306;2023-02-12T22:07:12;13.63;;;8.15;;
62915;SDS011;49010;51.230;-2.306;2023-02-12T22:10:56;15.02;;;8.82;;
62915;SDS011;49010;51.230;-2.306;2023-02-12T22:14:38;12.95;;;7.88;;
62915;SDS011;49010;51.230;-2.306;2023-02-12T22:18:20;14.57;;;9.10;;
62915;SDS011;49010;51.230;-2.306;2023-02-12T22:22:02;19.10;;;10.95;;
62915;SDS011;49010;51.230;-2.306;2023-02-12T22:25:44;13.73;;;8.52;;
62915;SDS011;49010;51.230;-2.306;2023-02-12T22:29:26;15.40;;;8.85;;
62915;SDS011;49010;51.230;-2.306;2023-02-12T22:33:08;14.85;;;9.23;;
62915;SDS011;49010;51.230;-2.306;2023-02-12T22:36:50;16.33;;;9.20;;
62915;SDS011;49010;51.230;-2.306;2023-02-12T22:40:32;14.35;;;8.43;;
62915;SDS011;49010;51.230;-2.306;2023-02-12T22:44:14;16.30;;;9.35;;
62915;SDS011;49010;51.230;-2.306;2023-02-12T22:47:56;14.48;;;8.73;;
62915;SDS011;49010;51.230;-2.306;2023-02-12T22:51:38;16.27;;;8.98;;
62915;SDS011;49010;51.230;-2.306;2023-02-12T22:55:21;12.95;;;8.30;;
62915;SDS011;49010;51.230;-2.306;2023-02-12T22:59:02;15.15;;;9.10;;
62915;SDS011;49010;51.230;-2.306;2023-02-12T23:02:44;14.88;;;8.93;;
62915;SDS011;49010;51.230;-2.306;2023-02-12T23:06:28;13.00;;;8.27;;
62915;SDS011;49010;51.230;-2.306;2023-02-12T23:10:12;15.05;;;8.15;;
62915;SDS011;49010;51.230;-2.306;2023-02-12T23:13:54;16.40;;;9.00;;
62915;SDS011;49010;51.230;-2.306;2023-02-12T23:17:37;15.82;;;8.43;;
62915;SDS011;49010;51.230;-2.306;2023-02-12T23:21:18;17.67;;;8.85;;
62915;SDS011;49010;51.230;-2.306;2023-02-12T23:25:00;14.07;;;8.10;;
62915;SDS011;49010;51.230;-2.306;2023-02-12T23:28:45;14.10;;;8.18;;
62915;SDS011;49010;51.230;-2.306;2023-02-12T23:32:27;15.93;;;9.43;;
62915;SDS011;49010;51.230;-2.306;2023-02-12T23:36:09;14.73;;;8.68;;
62915;SDS011;49010;51.230;-2.306;2023-02-12T23:39:51;18.52;;;10.57;;
62915;SDS011;49010;51.230;-2.306;2023-02-12T23:43:33;13.48;;;9.23;;
62915;SDS011;49010;51.230;-2.306;2023-02-12T23:47:14;21.77;;;10.57;;
62915;SDS011;49010;51.230;-2.306;2023-02-12T23:50:56;15.18;;;8.40;;
62915;SDS011;49010;51.230;-2.306;2023-02-12T23:54:39;17.98;;;10.02;;
62915;SDS011;49010;51.230;-2.306;2023-02-12T23:58:20;17.83;;;10.07;;
